Time;durP1;ratioP1;P1;durP2;ratioP2;P2;SDS_P1;SDS_P2;PMS_P1;PMS_P2;Temp;Humidity;BMP_temperature;BMP_pressure;BME280_temperature;BME280_humidity;BME280_pressure;Samples;Min_cycle;Max_cycle;Signal;HPM_P1;HPM_P2
2023/06/12 00:01:36;;;;;;;19.27;17.53;;;28.60;53.40;;;;;;5071982;28;20462;-66
2023/06/12 00:04:05;;;;;;;18.10;16.30;;;28.60;53.30;;;;;;5072436;28;20481;-66
2023/06/12 00:06:35;;;;;;;16.73;15.03;;;28.60;53.30;;;;;;5071924;28;20460;-66
2023/06/12 00:09:05;;;;;;;17.30;15.63;;;28.60;53.40;;;;;;5070288;28;20509;-66
2023/06/12 00:11:33;;;;;;;17.87;16.07;;;28.60;53.40;;;;;;5073073;28;20463;-66
2023/06/12 00:14:02;;;;;;;15.70;14.20;;;28.60;53.40;;;;;;5071456;28;20446;-66
2023/06/12 00:16:30;;;;;;;16.03;14.47;;;28.50;53.40;;;;;;5072653;28;20461;-66
2023/06/12 00:18:58;;;;;;;16.70;14.37;;;28.50;53.30;;;;;;5072515;28;20482;-66
2023/06/12 00:21:26;;;;;;;14.57;13.20;;;28.50;53.30;;;;;;5072575;28;20466;-66
2023/06/12 00:23:56;;;;;;;14.83;13.33;;;28.50;53.30;;;;;;5072242;28;20464;-66
2023/06/12 00:26:25;;;;;;;13.30;12.00;;;28.50;53.30;;;;;;5071485;28;20450;-66
2023/06/12 00:28:53;;;;;;;13.80;12.60;;;28.50;53.30;;;;;;5071717;28;20474;-66
2023/06/12 00:31:22;;;;;;;13.03;11.73;;;28.50;53.40;;;;;;5071780;28;20475;-66
2023/06/12 00:33:51;;;;;;;12.97;11.77;;;28.50;53.40;;;;;;5072688;28;20491;-66
2023/06/12 00:36:19;;;;;;;13.57;12.17;;;28.50;53.30;;;;;;5071841;28;20492;-66
2023/06/12 00:38:47;;;;;;;12.70;11.60;;;28.50;53.40;;;;;;5070839;28;20462;-66
2023/06/12 00:41:18;;;;;;;13.40;12.20;;;28.50;53.40;;;;;;5069150;28;20480;-66
2023/06/12 00:43:46;;;;;;;11.67;10.67;;;28.50;53.40;;;;;;5070781;28;20467;-66
2023/06/12 00:46:15;;;;;;;11.10;10.10;;;28.50;53.40;;;;;;5071359;28;20455;-66
2023/06/12 00:48:43;;;;;;;12.53;10.80;;;28.40;53.40;;;;;;5071935;28;20465;-66
2023/06/12 00:51:12;;;;;;;10.60;9.60;;;28.40;53.40;;;;;;5064478;28;20462;-66
2023/06/12 00:53:40;;;;;;;10.80;9.90;;;28.40;53.40;;;;;;5071136;28;20551;-66
2023/06/12 00:56:08;;;;;;;10.30;9.40;;;28.40;53.30;;;;;;5071361;28;20488;-66
2023/06/12 00:58:38;;;;;;;10.97;9.90;;;28.40;53.40;;;;;;5072153;28;20458;-66
2023/06/12 01:01:08;;;;;;;10.17;9.37;;;28.40;53.40;;;;;;5068944;28;20481;-66
2023/06/12 01:03:38;;;;;;;9.90;9.10;;;28.40;53.40;;;;;;5070691;28;20460;-66
2023/06/12 01:06:13;;;;;;;8.83;8.13;;;28.40;53.40;;;;;;5071063;28;20492;-66
2023/06/12 01:08:55;;;;;;;8.70;7.90;;;28.40;53.40;;;;;;5067088;28;21030;-66
2023/06/12 01:11:23;;;;;;;9.60;8.80;;;28.40;53.40;;;;;;5066022;28;20461;-66
2023/06/12 01:13:53;;;;;;;8.57;7.80;;;28.30;53.40;;;;;;5062221;28;20513;-67
2023/06/12 01:16:21;;;;;;;8.73;7.90;;;28.30;53.40;;;;;;5070896;28;20459;-66
2023/06/12 01:18:52;;;;;;;8.40;7.60;;;28.30;53.40;;;;;;5069918;28;20519;-66
2023/06/12 01:21:22;;;;;;;8.03;7.33;;;28.30;53.40;;;;;;5063008;28;20500;-66
2023/06/12 01:24:13;;;;;;;7.30;6.70;;;28.30;53.40;;;;;;5068941;28;20468;-66
2023/06/12 01:27:08;;;;;;;8.33;7.53;;;28.30;53.40;;;;;;5064286;28;20927;-66
2023/06/12 01:29:52;;;;;;;8.07;7.40;;;28.30;53.50;;;;;;5065117;28;20504;-66
2023/06/12 01:32:24;;;;;;;7.73;7.07;;;28.30;53.40;;;;;;5068383;28;20479;-67
2023/06/12 01:34:57;;;;;;;8.43;7.73;;;28.30;53.40;;;;;;5068366;28;20496;-67
2023/06/12 01:37:35;;;;;;;7.37;6.87;;;28.30;53.40;;;;;;5068762;28;20461;-66
2023/06/12 01:40:09;;;;;;;8.07;7.37;;;28.30;53.50;;;;;;5070005;28;20465;-66
2023/06/12 01:42:40;;;;;;;7.17;6.67;;;28.30;53.50;;;;;;5069812;28;20474;-66
2023/06/12 01:45:10;;;;;;;7.90;7.20;;;28.30;53.40;;;;;;5066625;28;20469;-66
2023/06/12 01:47:41;;;;;;;7.43;6.83;;;28.30;53.40;;;;;;5063391;28;20464;-66
2023/06/12 01:50:10;;;;;;;8.40;7.80;;;28.20;53.50;;;;;;5066075;28;20915;-66
2023/06/12 01:52:40;;;;;;;7.30;6.70;;;28.20;53.40;;;;;;5070627;28;20859;-66
2023/06/12 01:55:09;;;;;;;7.83;7.13;;;28.20;53.50;;;;;;5069132;28;20598;-66
2023/06/12 01:57:40;;;;;;;7.33;6.73;;;28.20;53.50;;;;;;5068648;28;20948;-67
2023/06/12 02:00:12;;;;;;;7.73;7.13;;;28.20;53.50;;;;;;5065497;28;20526;-66
2023/06/12 02:02:54;;;;;;;7.67;7.07;;;28.20;53.50;;;;;;5070399;28;21306;-67
2023/06/12 02:05:27;;;;;;;7.10;6.60;;;28.20;53.50;;;;;;5061716;28;20458;-66
2023/06/12 02:07:55;;;;;;;8.37;7.67;;;28.20;53.50;;;;;;5065953;28;20511;-66
2023/06/12 02:10:24;;;;;;;6.90;6.30;;;28.20;53.50;;;;;;5067775;28;20522;-66
2023/06/12 02:12:52;;;;;;;6.80;6.30;;;28.20;53.50;;;;;;5069576;28;20923;-66
2023/06/12 02:15:21;;;;;;;6.70;6.20;;;28.20;53.50;;;;;;5068088;28;20468;-66
2023/06/12 02:17:51;;;;;;;7.27;6.67;;;28.20;53.50;;;;;;5070603;28;20456;-66
2023/06/12 02:20:19;;;;;;;6.57;6.07;;;28.10;53.50;;;;;;5069383;28;20566;-65
2023/06/12 02:22:47;;;;;;;6.23;5.83;;;28.10;53.50;;;;;;5069607;28;20457;-65
2023/06/12 02:25:15;;;;;;;7.43;6.90;;;28.10;53.50;;;;;;5068160;28;20978;-65
2023/06/12 02:27:44;;;;;;;7.10;6.60;;;28.10;53.50;;;;;;5066225;28;20465;-65
2023/06/12 02:30:13;;;;;;;6.73;6.13;;;28.10;53.50;;;;;;5067747;28;20484;-66
2023/06/12 02:32:42;;;;;;;6.90;6.40;;;28.10;53.50;;;;;;5069419;28;20499;-65
2023/06/12 02:35:12;;;;;;;6.93;6.33;;;28.10;53.50;;;;;;5068775;28;21126;-65
2023/06/12 02:37:40;;;;;;;7.30;6.70;;;28.10;53.50;;;;;;5068692;28;21049;-65
2023/06/12 02:40:09;;;;;;;6.53;5.93;;;28.10;53.50;;;;;;5066173;28;20463;-65
2023/06/12 02:42:38;;;;;;;6.63;6.03;;;28.10;53.50;;;;;;5067821;28;20994;-65
2023/06/12 02:45:07;;;;;;;5.83;5.43;;;28.10;53.50;;;;;;5067802;28;20808;-65
2023/06/12 02:47:36;;;;;;;6.17;5.67;;;28.10;53.50;;;;;;5061984;28;20819;-65
2023/06/12 02:50:07;;;;;;;5.90;5.50;;;28.10;53.50;;;;;;5067347;28;20562;-66
2023/06/12 02:52:46;;;;;;;6.60;6.10;;;28.10;53.50;;;;;;5068562;28;20475;-66
2023/06/12 02:55:15;;;;;;;6.87;6.43;;;28.00;53.60;;;;;;5068603;28;20478;-65
2023/06/12 02:57:44;;;;;;;6.50;6.00;;;28.00;53.50;;;;;;5068962;28;20460;-65
2023/06/12 03:00:14;;;;;;;6.50;6.10;;;28.00;53.60;;;;;;5067934;28;20560;-66
2023/06/12 03:02:47;;;;;;;6.80;6.30;;;28.00;53.60;;;;;;5067886;28;20481;-66
2023/06/12 03:05:16;;;;;;;6.47;6.00;;;28.00;53.60;;;;;;5068894;28;20458;-66
2023/06/12 03:07:46;;;;;;;6.67;6.17;;;28.00;53.60;;;;;;5068283;28;21044;-66
2023/06/12 03:10:17;;;;;;;7.10;6.53;;;28.00;53.60;;;;;;5062167;28;20974;-65
2023/06/12 03:12:46;;;;;;;5.97;5.57;;;28.00;53.60;;;;;;5065835;28;20475;-66
2023/06/12 03:15:15;;;;;;;6.67;6.17;;;28.00;53.60;;;;;;5068142;28;20454;-66
2023/06/12 03:17:43;;;;;;;6.97;6.47;;;28.00;53.60;;;;;;5073608;28;20464;-66
2023/06/12 03:20:14;;;;;;;6.60;6.10;;;28.00;53.60;;;;;;5073068;28;20985;-66
2023/06/12 03:22:43;;;;;;;6.57;6.10;;;28.00;53.60;;;;;;5063738;28;20970;-66
2023/06/12 03:25:18;;;;;;;5.83;5.43;;;27.90;53.60;;;;;;5073302;28;20475;-65
2023/06/12 03:27:47;;;;;;;6.67;6.17;;;27.90;53.60;;;;;;5072377;28;20463;-66
2023/06/12 03:30:17;;;;;;;7.03;6.53;;;27.90;53.70;;;;;;5071598;28;20463;-66
2023/06/12 03:32:47;;;;;;;6.30;5.90;;;27.90;53.60;;;;;;5065885;28;20491;-66
2023/06/12 03:35:15;;;;;;;6.07;5.67;;;27.90;53.60;;;;;;5069703;28;20493;-66
2023/06/12 03:37:46;;;;;;;6.80;6.30;;;27.90;53.70;;;;;;5071831;28;20467;-65
2023/06/12 03:40:18;;;;;;;6.43;5.83;;;27.90;53.70;;;;;;5072269;28;20819;-65
2023/06/12 03:42:47;;;;;;;7.30;6.60;;;27.90;53.70;;;;;;5069748;28;20460;-66
2023/06/12 03:45:15;;;;;;;6.00;5.60;;;27.90;53.70;;;;;;5067057;28;20866;-66
2023/06/12 03:47:44;;;;;;;6.77;6.27;;;27.90;53.70;;;;;;5069934;28;20528;-66
2023/06/12 03:50:16;;;;;;;6.70;6.30;;;27.90;53.70;;;;;;5066374;28;20838;-66
2023/06/12 03:52:45;;;;;;;6.93;6.43;;;27.90;53.80;;;;;;5070325;28;20454;-65
2023/06/12 03:55:20;;;;;;;6.97;6.10;;;27.90;53.80;;;;;;5071706;28;20493;-66
2023/06/12 03:57:49;;;;;;;6.77;6.27;;;27.90;53.90;;;;;;5073205;28;20450;-65
2023/06/12 04:00:19;;;;;;;5.90;5.50;;;27.90;53.80;;;;;;5070505;28;20463;-66
2023/06/12 04:02:48;;;;;;;6.30;5.83;;;27.90;53.80;;;;;;5070654;28;20517;-66
2023/06/12 04:05:20;;;;;;;6.57;6.10;;;27.90;53.80;;;;;;5070523;28;20512;-66
2023/06/12 04:07:49;;;;;;;6.57;6.07;;;27.90;53.80;;;;;;5068773;28;20465;-66
2023/06/12 04:10:22;;;;;;;6.07;5.67;;;27.90;53.80;;;;;;5071427;28;20466;-66
2023/06/12 04:12:50;;;;;;;6.33;5.83;;;27.80;53.80;;;;;;5070169;28;20533;-65
2023/06/12 04:15:19;;;;;;;5.87;5.47;;;27.80;53.80;;;;;;5074814;28;21022;-66
2023/06/12 04:17:48;;;;;;;6.50;6.00;;;27.80;53.90;;;;;;5064408;28;20482;-66
2023/06/12 04:20:17;;;;;;;6.70;6.20;;;27.80;53.90;;;;;;5068550;28;20489;-65
2023/06/12 04:22:49;;;;;;;7.83;7.23;;;27.80;53.90;;;;;;5061888;28;20472;-66
2023/06/12 04:25:18;;;;;;;6.20;5.80;;;27.90;53.90;;;;;;5071130;28;20830;-66
2023/06/12 04:27:49;;;;;;;7.17;6.60;;;27.80;53.90;;;;;;5070174;28;20460;-66
2023/06/12 04:30:25;;;;;;;6.20;5.80;;;27.80;53.90;;;;;;5070505;28;20542;-66
2023/06/12 04:32:56;;;;;;;6.70;6.23;;;27.80;53.90;;;;;;5096112;28;21013;-65
2023/06/12 04:35:25;;;;;;;6.67;6.17;;;27.80;53.80;;;;;;5065817;28;20490;-66
2023/06/12 04:37:53;;;;;;;6.70;6.30;;;27.80;53.80;;;;;;5059813;28;20466;-66
2023/06/12 04:40:22;;;;;;;7.53;7.00;;;27.80;53.80;;;;;;5064790;28;20458;-66
2023/06/12 04:42:59;;;;;;;7.00;6.50;;;27.80;53.80;;;;;;5063204;28;20975;-66
2023/06/12 04:45:32;;;;;;;7.30;6.80;;;27.80;53.80;;;;;;5063084;28;20822;-66
2023/06/12 04:48:02;;;;;;;6.77;6.27;;;27.80;53.80;;;;;;5080077;28;20476;-66
2023/06/12 04:50:31;;;;;;;7.00;6.50;;;27.80;53.70;;;;;;5077467;28;20478;-66
2023/06/12 04:53:01;;;;;;;6.33;5.90;;;27.80;53.80;;;;;;5062662;28;20474;-67
2023/06/12 04:55:30;;;;;;;6.87;6.27;;;27.80;53.80;;;;;;5068728;28;20455;-67
2023/06/12 04:58:00;;;;;;;7.70;7.00;;;27.80;53.80;;;;;;5082976;28;20526;-67
2023/06/12 05:00:30;;;;;;;7.90;7.37;;;27.80;53.80;;;;;;5066400;28;20467;-67
2023/06/12 05:02:59;;;;;;;6.60;6.10;;;27.80;53.90;;;;;;5068425;28;20470;-66
2023/06/12 05:05:29;;;;;;;7.20;6.60;;;27.80;53.90;;;;;;5062953;28;20512;-67
2023/06/12 05:07:57;;;;;;;8.27;6.70;;;27.80;53.90;;;;;;5060392;28;20452;-66
2023/06/12 05:10:26;;;;;;;7.83;7.23;;;27.80;53.90;;;;;;5070324;28;20451;-67
2023/06/12 05:12:54;;;;;;;6.47;6.07;;;27.80;53.90;;;;;;5060468;28;20977;-67
2023/06/12 05:15:23;;;;;;;7.20;6.60;;;27.80;54.00;;;;;;5061454;28;21320;-67
2023/06/12 05:17:52;;;;;;;8.10;7.50;;;27.80;54.10;;;;;;5065979;28;20455;-67
2023/06/12 05:20:20;;;;;;;7.13;6.60;;;27.80;54.10;;;;;;5066819;28;20464;-67
2023/06/12 05:22:48;;;;;;;7.30;6.70;;;27.80;54.20;;;;;;5062133;28;20482;-67
2023/06/12 05:25:17;;;;;;;8.20;7.47;;;27.80;54.20;;;;;;5067061;28;20464;-67
2023/06/12 05:27:46;;;;;;;7.07;6.57;;;27.80;54.20;;;;;;5056595;28;20583;-67
2023/06/12 05:30:15;;;;;;;8.80;7.10;;;27.80;54.30;;;;;;5060445;28;20466;-67
2023/06/12 05:32:45;;;;;;;7.53;6.97;;;27.80;54.30;;;;;;5059357;28;20460;-67
2023/06/12 05:35:14;;;;;;;8.10;7.40;;;27.80;54.30;;;;;;5064363;28;20517;-67
2023/06/12 05:37:42;;;;;;;7.53;6.93;;;27.80;54.30;;;;;;5068486;28;20456;-67
2023/06/12 05:40:13;;;;;;;7.00;6.50;;;27.80;54.30;;;;;;5065325;28;20462;-67
2023/06/12 05:42:43;;;;;;;7.60;7.10;;;27.80;54.40;;;;;;5068280;28;20701;-67
2023/06/12 05:45:12;;;;;;;8.70;8.00;;;27.80;54.30;;;;;;5062794;28;20509;-67
2023/06/12 05:47:42;;;;;;;8.57;6.37;;;27.90;54.30;;;;;;5075898;28;20555;-67
2023/06/12 05:50:12;;;;;;;7.57;6.97;;;27.80;54.40;;;;;;5063770;28;20503;-67
2023/06/12 05:52:41;;;;;;;7.73;7.13;;;27.80;54.40;;;;;;5069367;28;20471;-67
2023/06/12 05:55:10;;;;;;;10.37;6.27;;;27.80;54.40;;;;;;5061061;28;20471;-67
2023/06/12 05:57:38;;;;;;;7.47;6.77;;;27.90;54.40;;;;;;5059520;28;20484;-67
2023/06/12 06:00:10;;;;;;;7.40;6.87;;;27.80;54.40;;;;;;5061775;28;20496;-67
2023/06/12 06:02:43;;;;;;;7.60;6.90;;;27.80;54.40;;;;;;5063092;28;20474;-67
2023/06/12 06:05:25;;;;;;;9.73;6.83;;;27.80;54.40;;;;;;5084772;28;20460;-65
2023/06/12 06:07:55;;;;;;;6.90;6.40;;;27.90;54.60;;;;;;5064074;28;20459;-65
2023/06/12 06:10:24;;;;;;;7.77;7.17;;;27.90;54.70;;;;;;5067363;28;20470;-65
2023/06/12 06:12:53;;;;;;;7.47;6.87;;;27.90;54.80;;;;;;5069536;28;20463;-65
2023/06/12 06:15:21;;;;;;;7.43;6.90;;;27.90;54.90;;;;;;5067673;28;20473;-65
2023/06/12 06:17:50;;;;;;;6.40;6.00;;;27.90;55.00;;;;;;5068372;28;20458;-65
2023/06/12 06:20:18;;;;;;;7.63;6.80;;;28.00;55.10;;;;;;5067403;28;20989;-65
2023/06/12 06:22:48;;;;;;;6.40;5.90;;;28.00;55.10;;;;;;5068538;28;20524;-66
2023/06/12 06:25:17;;;;;;;7.20;6.63;;;28.00;55.10;;;;;;5070008;28;20490;-65
2023/06/12 06:27:46;;;;;;;8.70;6.83;;;28.10;55.10;;;;;;5067030;28;20556;-65
2023/06/12 06:30:14;;;;;;;6.73;6.27;;;28.10;55.10;;;;;;5064094;28;20469;-65
2023/06/12 06:32:42;;;;;;;7.40;6.90;;;28.10;55.10;;;;;;5062717;28;20537;-65
2023/06/12 06:35:11;;;;;;;7.87;7.23;;;28.10;55.10;;;;;;5065834;28;20568;-65
2023/06/12 06:37:40;;;;;;;7.17;6.57;;;28.20;55.00;;;;;;5069704;28;20447;-66
2023/06/12 06:40:10;;;;;;;6.07;5.67;;;28.20;55.00;;;;;;5069113;28;20529;-65
2023/06/12 06:42:40;;;;;;;7.00;6.50;;;28.20;55.00;;;;;;5068610;28;20476;-65
2023/06/12 06:45:12;;;;;;;7.10;6.60;;;28.20;55.00;;;;;;5066875;28;20466;-65
2023/06/12 06:47:42;;;;;;;7.00;6.50;;;28.20;55.00;;;;;;5068266;28;20458;-65
2023/06/12 06:50:11;;;;;;;6.70;6.20;;;28.30;55.00;;;;;;5067638;28;20471;-66
2023/06/12 06:52:40;;;;;;;6.70;6.30;;;28.20;55.00;;;;;;5085216;28;21029;-65
2023/06/12 06:55:12;;;;;;;7.40;6.90;;;28.30;55.00;;;;;;5072037;28;20468;-65
2023/06/12 06:57:42;;;;;;;7.80;7.20;;;28.30;55.00;;;;;;5069732;28;21018;-66
2023/06/12 07:00:12;;;;;;;7.47;6.87;;;28.30;55.00;;;;;;5065341;28;20551;-65
2023/06/12 07:02:43;;;;;;;6.70;6.10;;;28.30;55.00;;;;;;5065180;28;20888;-65
2023/06/12 07:05:13;;;;;;;6.87;6.37;;;28.30;55.00;;;;;;5095137;28;20467;-65
2023/06/12 07:07:42;;;;;;;7.03;6.53;;;28.30;54.90;;;;;;5071533;28;20468;-65
2023/06/12 07:10:29;;;;;;;7.10;6.60;;;28.40;54.90;;;;;;5076278;28;20469;-65
2023/06/12 07:12:58;;;;;;;6.93;6.53;;;28.40;54.90;;;;;;5071877;28;20500;-65
2023/06/12 07:15:33;;;;;;;7.30;6.80;;;28.40;55.00;;;;;;5071964;28;20489;-65
2023/06/12 07:18:02;;;;;;;6.77;6.37;;;28.40;55.00;;;;;;5072020;28;20881;-66
2023/06/12 07:20:30;;;;;;;7.50;7.00;;;28.40;55.00;;;;;;5070970;28;20458;-65
2023/06/12 07:22:59;;;;;;;6.40;6.00;;;28.40;54.90;;;;;;5070018;28;20886;-65
2023/06/12 07:25:29;;;;;;;6.43;6.03;;;28.50;54.90;;;;;;5067376;28;20479;-65
2023/06/12 07:27:57;;;;;;;6.50;6.00;;;28.50;54.90;;;;;;5071154;28;20454;-65
2023/06/12 07:30:26;;;;;;;7.10;6.60;;;28.50;54.90;;;;;;5069423;28;20462;-65
2023/06/12 07:32:55;;;;;;;6.43;5.93;;;28.50;54.90;;;;;;5069961;28;20981;-65
2023/06/12 07:35:23;;;;;;;7.10;6.60;;;28.50;54.90;;;;;;5068533;28;20553;-65
2023/06/12 07:37:51;;;;;;;6.20;5.70;;;28.50;54.90;;;;;;5064978;28;20452;-65
2023/06/12 07:40:20;;;;;;;6.77;6.37;;;28.50;54.90;;;;;;5070715;28;20558;-65
2023/06/12 07:42:50;;;;;;;6.70;6.30;;;28.50;55.00;;;;;;5067574;28;20476;-65
2023/06/12 07:45:20;;;;;;;7.10;6.60;;;28.50;54.90;;;;;;5069708;28;20508;-65
2023/06/12 07:47:49;;;;;;;7.90;7.30;;;28.50;54.90;;;;;;5070255;28;20472;-66
2023/06/12 07:50:20;;;;;;;7.13;6.63;;;28.50;54.90;;;;;;5067120;28;20464;-64
2023/06/12 07:52:49;;;;;;;6.43;5.87;;;28.50;54.90;;;;;;5071827;28;20825;-65
2023/06/12 07:55:18;;;;;;;6.97;6.57;;;28.50;54.90;;;;;;5069674;28;20539;-65
2023/06/12 07:57:47;;;;;;;8.60;7.67;;;28.60;54.90;;;;;;5069862;28;20465;-66
2023/06/12 08:00:17;;;;;;;6.40;5.90;;;28.60;54.90;;;;;;5069524;28;20469;-65
2023/06/12 08:02:58;;;;;;;7.80;7.20;;;28.50;54.90;;;;;;5071297;28;20469;-65
2023/06/12 08:05:36;;;;;;;6.90;6.30;;;28.60;54.90;;;;;;5067519;28;20461;-65
2023/06/12 08:08:12;;;;;;;7.27;6.67;;;28.60;54.80;;;;;;5069565;28;20458;-65
2023/06/12 08:10:42;;;;;;;6.80;6.30;;;28.60;54.60;;;;;;5065181;28;20452;-65
2023/06/12 08:13:11;;;;;;;7.20;6.70;;;28.60;54.70;;;;;;5069987;28;20521;-65
2023/06/12 08:15:41;;;;;;;7.00;6.40;;;28.60;54.60;;;;;;5069255;28;20465;-65
2023/06/12 08:18:12;;;;;;;7.53;7.03;;;28.60;54.50;;;;;;5070121;28;20469;-65
2023/06/12 08:20:41;;;;;;;7.70;7.10;;;28.60;54.50;;;;;;5070090;28;20962;-65
2023/06/12 08:23:10;;;;;;;7.37;6.87;;;28.60;54.50;;;;;;5070857;28;20453;-65
2023/06/12 08:25:39;;;;;;;7.30;6.80;;;28.60;54.60;;;;;;5066669;28;20472;-66
2023/06/12 08:28:07;;;;;;;6.50;6.10;;;28.60;54.50;;;;;;5065859;28;20503;-66
2023/06/12 08:30:36;;;;;;;6.70;6.20;;;28.70;54.40;;;;;;5068702;28;20464;-65
2023/06/12 08:33:05;;;;;;;7.20;6.70;;;28.70;54.40;;;;;;5068155;28;20465;-65
2023/06/12 08:35:35;;;;;;;7.37;6.87;;;28.70;54.40;;;;;;5069948;28;20549;-65
2023/06/12 08:38:03;;;;;;;7.17;6.67;;;28.70;54.30;;;;;;5069496;28;20461;-65
2023/06/12 08:40:32;;;;;;;6.93;6.43;;;28.70;54.20;;;;;;5069334;28;20512;-65
2023/06/12 08:43:01;;;;;;;7.17;6.67;;;28.60;54.10;;;;;;5068243;28;20572;-65
2023/06/12 08:45:32;;;;;;;6.90;6.30;;;28.60;54.00;;;;;;5069648;28;20461;-65
2023/06/12 08:48:02;;;;;;;7.90;7.30;;;28.50;54.00;;;;;;5070334;28;20460;-65
2023/06/12 08:50:34;;;;;;;7.63;6.80;;;28.50;53.90;;;;;;5070417;28;20492;-65
2023/06/12 08:53:04;;;;;;;6.80;6.30;;;28.50;53.80;;;;;;5068369;28;20449;-65
2023/06/12 08:55:39;;;;;;;7.70;7.00;;;28.40;53.80;;;;;;5069582;28;20463;-65
2023/06/12 08:58:08;;;;;;;7.00;6.60;;;28.40;53.70;;;;;;5068753;28;21010;-65
2023/06/12 09:00:37;;;;;;;6.53;6.07;;;28.40;53.70;;;;;;5069077;28;20455;-65
2023/06/12 09:03:06;;;;;;;7.03;6.53;;;28.30;53.60;;;;;;5070079;28;20454;-65
2023/06/12 09:05:39;;;;;;;8.00;7.40;;;28.30;53.60;;;;;;5066742;28;20469;-67
2023/06/12 09:08:08;;;;;;;7.40;6.90;;;28.30;53.50;;;;;;5070741;28;20903;-68
2023/06/12 09:10:38;;;;;;;6.37;5.97;;;28.30;53.20;;;;;;5066395;28;20811;-67
2023/06/12 09:13:09;;;;;;;6.80;6.30;;;28.30;53.10;;;;;;5070017;28;20527;-67
2023/06/12 09:15:39;;;;;;;6.10;5.70;;;28.40;53.00;;;;;;5067633;28;20534;-67
2023/06/12 09:18:11;;;;;;;7.17;6.60;;;28.40;52.90;;;;;;5069969;28;20468;-67
2023/06/12 09:20:41;;;;;;;6.47;5.97;;;28.40;52.70;;;;;;5069202;28;20526;-67
2023/06/12 09:23:11;;;;;;;8.10;7.50;;;28.50;52.60;;;;;;5067702;28;20451;-67
2023/06/12 09:25:43;;;;;;;7.33;6.73;;;28.50;52.70;;;;;;5068524;28;20469;-67
2023/06/12 09:28:36;;;;;;;6.43;6.03;;;28.50;52.70;;;;;;5070250;28;20461;-68
2023/06/12 09:31:05;;;;;;;6.53;6.07;;;28.50;52.50;;;;;;5069753;28;20495;-67
2023/06/12 09:33:37;;;;;;;6.80;6.30;;;28.50;52.50;;;;;;5067192;28;20469;-67
2023/06/12 09:36:08;;;;;;;7.17;6.50;;;28.50;52.40;;;;;;5067143;28;20481;-67
2023/06/12 09:38:36;;;;;;;6.90;6.30;;;28.50;52.40;;;;;;5069940;28;20450;-67
2023/06/12 09:41:06;;;;;;;6.50;6.00;;;28.50;52.40;;;;;;5069372;28;21012;-67
2023/06/12 09:43:35;;;;;;;6.27;5.87;;;28.50;52.30;;;;;;5063890;28;20465;-68
2023/06/12 09:46:05;;;;;;;6.70;6.27;;;28.60;52.20;;;;;;5069262;28;20450;-68
2023/06/12 09:48:34;;;;;;;6.17;5.67;;;28.60;52.10;;;;;;5069189;28;20972;-68
2023/06/12 09:51:07;;;;;;;6.07;5.67;;;28.60;52.10;;;;;;5069867;28;20464;-68
2023/06/12 09:53:38;;;;;;;7.60;7.00;;;28.60;52.20;;;;;;5069645;28;21006;-68
2023/06/12 09:56:08;;;;;;;6.90;6.40;;;28.60;52.20;;;;;;5065791;28;20465;-68
2023/06/12 09:58:39;;;;;;;6.50;5.90;;;28.60;52.10;;;;;;5069409;28;20456;-68
2023/06/12 10:01:08;;;;;;;7.70;6.57;;;28.60;52.00;;;;;;5067140;28;20991;-68
2023/06/12 10:03:39;;;;;;;6.90;6.40;;;28.60;52.10;;;;;;5069743;28;20985;-67
2023/06/12 10:06:12;;;;;;;6.47;5.97;;;28.60;52.10;;;;;;5067988;28;20481;-68
2023/06/12 10:08:41;;;;;;;6.03;5.63;;;28.60;52.00;;;;;;5063803;28;20461;-68
2023/06/12 10:11:10;;;;;;;6.80;6.20;;;28.60;52.00;;;;;;5066376;28;20545;-68
2023/06/12 10:13:39;;;;;;;6.60;6.10;;;28.60;51.90;;;;;;5070734;28;20559;-68
2023/06/12 10:16:08;;;;;;;6.60;6.10;;;28.60;52.00;;;;;;5068935;28;20464;-67
2023/06/12 10:18:37;;;;;;;7.10;6.43;;;28.60;52.00;;;;;;5070867;28;20458;-67
2023/06/12 10:21:06;;;;;;;6.23;5.83;;;28.60;51.90;;;;;;5060600;28;20792;-68
2023/06/12 10:23:38;;;;;;;6.40;5.90;;;28.60;51.90;;;;;;5069760;28;20502;-67
2023/06/12 10:26:07;;;;;;;6.40;6.00;;;28.60;52.00;;;;;;5069730;28;20865;-66
2023/06/12 10:28:35;;;;;;;7.37;6.87;;;28.60;51.90;;;;;;5066675;28;21031;-65
2023/06/12 10:31:13;;;;;;;6.80;6.30;;;28.60;51.90;;;;;;5069495;28;20452;-68
2023/06/12 10:34:10;;;;;;;7.63;6.00;;;28.60;51.80;;;;;;5067223;28;20475;-66
2023/06/12 10:36:41;;;;;;;6.80;6.30;;;28.50;51.80;;;;;;5070038;28;20447;-66
2023/06/12 10:39:19;;;;;;;7.53;6.83;;;28.50;51.90;;;;;;5069718;28;20465;-66
2023/06/12 10:41:56;;;;;;;6.70;6.20;;;28.50;51.90;;;;;;5068914;28;21027;-66
2023/06/12 10:44:38;;;;;;;6.20;5.70;;;28.50;51.80;;;;;;5061224;28;20459;-66
2023/06/12 10:47:18;;;;;;;5.40;5.00;;;28.50;51.90;;;;;;5069951;28;20453;-65
2023/06/12 10:50:00;;;;;;;6.47;5.97;;;28.50;51.80;;;;;;5069119;28;20481;-66
2023/06/12 10:52:29;;;;;;;5.80;5.40;;;28.50;51.70;;;;;;5067016;28;20437;-66
2023/06/12 10:55:25;;;;;;;6.77;6.37;;;28.50;51.70;;;;;;5066237;28;20496;-66
2023/06/12 10:57:55;;;;;;;6.30;5.80;;;28.40;51.60;;;;;;5062575;28;20452;-67
2023/06/12 11:00:24;;;;;;;6.93;6.33;;;28.50;51.40;;;;;;5069074;28;20958;-67
2023/06/12 11:02:58;;;;;;;6.03;5.33;;;28.50;51.40;;;;;;5059968;28;20488;-66
2023/06/12 11:05:30;;;;;;;6.00;5.60;;;28.40;51.20;;;;;;5061269;28;20961;-67
2023/06/12 11:07:59;;;;;;;6.60;5.47;;;28.40;51.30;;;;;;5060446;28;20954;-67
2023/06/12 11:10:30;;;;;;;6.33;5.83;;;28.40;51.30;;;;;;5060808;28;21012;-68
2023/06/12 11:12:59;;;;;;;6.30;5.73;;;28.40;51.20;;;;;;5064932;28;20450;-67
2023/06/12 11:15:28;;;;;;;5.97;5.37;;;28.40;51.10;;;;;;5063862;28;20463;-68
2023/06/12 11:17:56;;;;;;;5.80;5.30;;;28.40;51.10;;;;;;5064161;28;20551;-67
2023/06/12 11:20:24;;;;;;;6.60;6.10;;;28.40;51.10;;;;;;5067469;28;20460;-70
2023/06/12 11:23:01;;;;;;;5.97;5.47;;;28.40;51.10;;;;;;5069688;28;20547;-69
2023/06/12 11:25:34;;;;;;;6.63;6.03;;;28.40;51.10;;;;;;5069080;28;20476;-69
2023/06/12 11:28:04;;;;;;;6.77;6.30;;;28.30;51.00;;;;;;5062262;28;20480;-69
2023/06/12 11:30:32;;;;;;;6.20;5.60;;;28.30;51.00;;;;;;5062643;28;20527;-70
2023/06/12 11:33:08;;;;;;;5.57;5.17;;;28.30;50.80;;;;;;5067375;28;20452;-70
2023/06/12 11:35:41;;;;;;;6.00;5.50;;;28.30;50.80;;;;;;5065782;28;20531;-70
2023/06/12 11:38:10;;;;;;;9.90;6.40;;;28.20;50.80;;;;;;5072277;28;20476;-69
2023/06/12 11:40:42;;;;;;;5.60;5.20;;;28.20;50.80;;;;;;5066896;28;20484;-70
2023/06/12 11:43:11;;;;;;;5.20;4.90;;;28.20;50.80;;;;;;5068354;28;20477;-69
2023/06/12 11:45:41;;;;;;;5.83;5.33;;;28.10;50.90;;;;;;5064659;28;20540;-68
2023/06/12 11:48:14;;;;;;;5.87;5.47;;;28.10;51.00;;;;;;5069624;28;20468;-68
2023/06/12 11:50:47;;;;;;;5.50;5.10;;;28.10;51.00;;;;;;5070532;28;20503;-68
2023/06/12 11:53:16;;;;;;;5.93;5.50;;;28.10;51.10;;;;;;5062324;28;20447;-68
2023/06/12 11:55:48;;;;;;;5.93;5.43;;;28.10;51.00;;;;;;5067874;28;20919;-68
2023/06/12 11:58:19;;;;;;;11.30;8.70;;;28.10;51.10;;;;;;5064688;28;20451;-68
2023/06/12 12:00:51;;;;;;;15.20;10.73;;;28.10;51.20;;;;;;5065314;28;20436;-68
2023/06/12 12:03:21;;;;;;;14.50;10.40;;;28.10;51.20;;;;;;5055233;28;20900;-68
2023/06/12 12:05:53;;;;;;;16.63;10.47;;;28.20;51.10;;;;;;5066011;28;20479;-68
2023/06/12 12:08:27;;;;;;;10.67;8.53;;;28.30;50.80;;;;;;5067906;28;20447;-67
2023/06/12 12:10:57;;;;;;;11.93;8.10;;;28.30;51.10;;;;;;5066368;28;20452;-68
2023/06/12 12:13:25;;;;;;;12.10;8.07;;;28.40;51.10;;;;;;5071055;28;20964;-68
2023/06/12 12:15:53;;;;;;;10.30;8.40;;;28.60;51.10;;;;;;5061998;28;20460;-68
2023/06/12 12:18:21;;;;;;;11.07;9.50;;;28.70;50.80;;;;;;5065690;28;20464;-67
2023/06/12 12:20:50;;;;;;;10.50;8.60;;;29.00;50.60;;;;;;5067181;28;20507;-67
2023/06/12 12:23:24;;;;;;;15.97;9.43;;;29.10;50.30;;;;;;5067942;28;20534;-67
2023/06/12 12:25:53;;;;;;;9.83;7.70;;;29.20;50.10;;;;;;5065509;28;20471;-68
2023/06/12 12:28:22;;;;;;;8.23;6.97;;;29.30;49.90;;;;;;5071879;28;20491;-68
2023/06/12 12:30:50;;;;;;;8.13;6.60;;;29.40;49.70;;;;;;5066339;28;20468;-64
2023/06/12 12:33:19;;;;;;;8.30;7.50;;;29.50;49.70;;;;;;5048086;28;20472;-63
2023/06/12 12:39:47;;;;;;;7.10;6.50;;;29.60;49.80;;;;;;5046896;28;20481;-66
2023/06/12 12:42:16;;;;;;;8.93;8.13;;;29.70;49.90;;;;;;5062945;28;20460;-65
2023/06/12 12:44:47;;;;;;;9.77;8.60;;;29.80;50.00;;;;;;5054361;28;20448;-64
2023/06/12 12:47:15;;;;;;;8.37;7.50;;;29.90;50.00;;;;;;5051585;28;20522;-64
2023/06/12 12:49:44;;;;;;;16.63;8.10;;;29.90;50.10;;;;;;5051583;28;20442;-64
2023/06/12 12:52:16;;;;;;;8.20;7.30;;;29.90;50.20;;;;;;5057557;28;20540;-64
2023/06/12 12:55:06;;;;;;;7.33;6.60;;;29.90;50.30;;;;;;5091050;28;20466;-64
2023/06/12 12:57:37;;;;;;;10.30;6.87;;;30.00;50.40;;;;;;5051491;28;20458;-64
2023/06/12 13:00:10;;;;;;;7.33;6.60;;;30.00;50.50;;;;;;5061881;28;20459;-64
2023/06/12 13:02:41;;;;;;;7.17;6.53;;;30.00;50.60;;;;;;5058860;28;20510;-63
2023/06/12 13:05:11;;;;;;;8.80;6.53;;;30.10;50.60;;;;;;5055805;28;20467;-63
2023/06/12 13:07:41;;;;;;;7.03;6.30;;;30.10;50.60;;;;;;5059337;28;20472;-64